Time;durP1;ratioP1;P1;durP2;ratioP2;P2;SDS_P1;SDS_P2;PMS_P1;PMS_P2;Temp;Humidity;BMP_temperature;BMP_pressure;BME280_temperature;BME280_humidity;BME280_pressure;Samples;Min_cycle;Max_cycle;Signal;HPM_P1;HPM_P2
2023/08/01 00:01:42;;;;;;;15.77;7.57;;;16.10;99.90;;;;;;5075823;28;20205;-82
2023/08/01 00:04:10;;;;;;;12.30;7.57;;;16.10;99.90;;;;;;5075848;28;20208;-82
2023/08/01 00:06:37;;;;;;;11.63;7.17;;;16.00;99.90;;;;;;5076114;28;20715;-82
2023/08/01 00:09:03;;;;;;;9.13;7.43;;;16.00;99.90;;;;;;5076170;28;20201;-82
2023/08/01 00:11:30;;;;;;;10.03;6.57;;;16.00;99.90;;;;;;5076005;28;20259;-82
2023/08/01 00:13:57;;;;;;;8.70;7.33;;;16.00;99.90;;;;;;5075747;28;20239;-82
2023/08/01 00:16:23;;;;;;;9.17;6.90;;;16.00;99.90;;;;;;5075505;28;20205;-82
2023/08/01 00:18:50;;;;;;;11.00;6.90;;;16.10;99.90;;;;;;5075925;28;20534;-82
2023/08/01 00:21:18;;;;;;;9.60;6.60;;;16.00;99.90;;;;;;5075824;28;20201;-82
2023/08/01 00:23:45;;;;;;;9.10;6.60;;;16.00;99.90;;;;;;5073837;28;20197;-82
2023/08/01 00:26:11;;;;;;;8.83;7.03;;;15.90;99.90;;;;;;5074851;28;20220;-82
2023/08/01 00:28:38;;;;;;;9.90;6.10;;;15.90;99.90;;;;;;5074945;28;20216;-81
2023/08/01 00:31:06;;;;;;;8.30;6.87;;;15.90;99.90;;;;;;5075381;28;20197;-81
2023/08/01 00:33:33;;;;;;;9.00;6.83;;;15.90;99.90;;;;;;5075602;28;20201;-81
2023/08/01 00:36:00;;;;;;;9.93;6.80;;;15.90;99.90;;;;;;5075398;28;20599;-81
2023/08/01 00:38:28;;;;;;;9.57;6.63;;;15.90;99.90;;;;;;5075151;28;20201;-81
2023/08/01 00:40:55;;;;;;;10.23;7.33;;;16.00;99.90;;;;;;5075115;28;20678;-81
2023/08/01 00:43:21;;;;;;;9.20;7.43;;;16.00;99.90;;;;;;5075105;28;20209;-80
2023/08/01 00:45:48;;;;;;;10.03;7.00;;;16.00;99.90;;;;;;5074801;28;20278;-80
2023/08/01 00:48:15;;;;;;;9.53;7.77;;;16.00;99.90;;;;;;5074867;28;20664;-80
2023/08/01 00:50:42;;;;;;;10.17;6.87;;;16.00;99.90;;;;;;5074622;28;20622;-80
2023/08/01 00:53:08;;;;;;;9.03;7.20;;;16.00;99.90;;;;;;5074660;28;20564;-79
2023/08/01 00:55:37;;;;;;;8.63;6.97;;;16.00;99.90;;;;;;5074696;28;20255;-78
2023/08/01 00:58:04;;;;;;;9.40;7.17;;;16.10;99.90;;;;;;5074427;28;20228;-78
2023/08/01 01:00:30;;;;;;;14.73;7.77;;;16.10;99.90;;;;;;5074174;28;20196;-78
2023/08/01 01:02:57;;;;;;;11.33;7.97;;;16.00;99.90;;;;;;5074090;28;20243;-78
2023/08/01 01:05:25;;;;;;;12.87;7.83;;;16.00;99.90;;;;;;5073823;28;20254;-77
2023/08/01 01:07:53;;;;;;;10.03;8.30;;;15.90;99.90;;;;;;5073909;28;20196;-77
2023/08/01 01:10:19;;;;;;;9.50;7.80;;;15.90;99.90;;;;;;5074074;28;20193;-78
2023/08/01 01:12:50;;;;;;;10.37;7.63;;;15.90;99.90;;;;;;5074022;28;20205;-77
2023/08/01 01:15:16;;;;;;;9.77;6.90;;;15.90;99.90;;;;;;5074111;28;20560;-77
2023/08/01 01:17:43;;;;;;;10.33;6.10;;;16.00;99.90;;;;;;5074819;28;20254;-77
2023/08/01 01:20:10;;;;;;;9.37;6.07;;;16.00;99.90;;;;;;5074831;28;20197;-77
2023/08/01 01:22:40;;;;;;;8.53;6.63;;;16.00;99.90;;;;;;5073773;28;20270;-76
2023/08/01 01:25:09;;;;;;;8.00;6.23;;;16.00;99.90;;;;;;5073478;28;20193;-76
2023/08/01 01:27:38;;;;;;;7.60;5.60;;;16.00;99.90;;;;;;5073589;28;20228;-76
2023/08/01 01:30:07;;;;;;;7.93;5.87;;;16.10;99.90;;;;;;5073590;28;20247;-76
2023/08/01 01:32:34;;;;;;;10.73;6.40;;;16.00;99.90;;;;;;5073376;28;20226;-77
2023/08/01 01:35:04;;;;;;;7.07;5.60;;;16.00;99.90;;;;;;5073432;28;20609;-77
2023/08/01 01:37:30;;;;;;;11.37;5.90;;;16.10;99.90;;;;;;5072577;28;20201;-75
2023/08/01 01:39:58;;;;;;;8.17;6.13;;;16.00;99.90;;;;;;5073109;28;20196;-75
2023/08/01 01:42:25;;;;;;;8.23;6.30;;;16.00;99.90;;;;;;5073534;28;20200;-75
2023/08/01 01:44:51;;;;;;;9.67;6.23;;;16.00;99.90;;;;;;5073476;28;20534;-76
2023/08/01 01:47:18;;;;;;;9.40;6.00;;;16.00;99.90;;;;;;5073169;28;20270;-75
2023/08/01 01:49:45;;;;;;;8.53;5.57;;;16.00;99.90;;;;;;5073138;28;20580;-75
2023/08/01 01:52:11;;;;;;;7.97;6.13;;;16.00;99.90;;;;;;5073356;28;20197;-75
2023/08/01 01:54:38;;;;;;;8.23;5.80;;;16.00;99.90;;;;;;5073554;28;20251;-76
2023/08/01 01:57:06;;;;;;;7.97;6.00;;;15.90;99.90;;;;;;5073496;28;20233;-77
2023/08/01 01:59:33;;;;;;;9.93;5.63;;;15.90;99.90;;;;;;5073283;28;20193;-78
2023/08/01 02:02:00;;;;;;;8.43;6.20;;;15.80;99.90;;;;;;5073339;28;20259;-78
2023/08/01 02:04:27;;;;;;;9.20;6.63;;;15.50;99.90;;;;;;5073067;28;20568;-77
2023/08/01 02:06:54;;;;;;;10.13;6.60;;;15.50;99.90;;;;;;5073088;28;20753;-77
2023/08/01 02:09:21;;;;;;;8.70;6.27;;;15.50;99.90;;;;;;5073087;28;20197;-76
2023/08/01 02:11:48;;;;;;;11.00;6.50;;;15.60;99.90;;;;;;5073125;28;20197;-77
2023/08/01 02:14:16;;;;;;;7.87;5.90;;;15.60;99.90;;;;;;5072963;28;20250;-76
2023/08/01 02:16:43;;;;;;;8.70;6.53;;;15.60;99.90;;;;;;5072776;28;20215;-77
2023/08/01 02:19:09;;;;;;;10.37;6.70;;;15.70;99.90;;;;;;5072868;28;20270;-76
2023/08/01 02:21:36;;;;;;;9.50;7.10;;;15.70;99.90;;;;;;5073185;28;20242;-76
2023/08/01 02:24:03;;;;;;;9.30;6.87;;;15.70;99.90;;;;;;5073290;28;20258;-77
2023/08/01 02:26:30;;;;;;;9.37;6.93;;;15.80;99.90;;;;;;5073166;28;20265;-76
2023/08/01 02:28:56;;;;;;;8.57;7.07;;;15.80;99.90;;;;;;5073150;28;20205;-76
2023/08/01 02:31:24;;;;;;;10.97;7.00;;;15.80;99.90;;;;;;5072970;28;20616;-77
2023/08/01 02:33:51;;;;;;;9.50;6.90;;;15.90;99.90;;;;;;5072665;28;20603;-76
2023/08/01 02:36:17;;;;;;;8.30;6.40;;;15.90;99.90;;;;;;5073174;28;20201;-77
2023/08/01 02:38:44;;;;;;;9.40;6.07;;;15.80;99.90;;;;;;5073088;28;20201;-77
2023/08/01 02:41:11;;;;;;;8.77;5.93;;;15.90;99.90;;;;;;5073222;28;20196;-77
2023/08/01 02:43:38;;;;;;;8.03;6.37;;;16.00;99.90;;;;;;5073113;28;20231;-76
2023/08/01 02:46:05;;;;;;;9.57;5.93;;;16.00;99.90;;;;;;5072756;28;20294;-77
2023/08/01 02:48:35;;;;;;;10.03;6.50;;;16.00;99.90;;;;;;5075376;28;20576;-76
2023/08/01 02:51:02;;;;;;;8.93;6.17;;;15.90;99.90;;;;;;5076686;28;20203;-77
2023/08/01 02:53:28;;;;;;;9.57;6.30;;;15.90;99.90;;;;;;5076776;28;20197;-77
2023/08/01 02:55:55;;;;;;;8.13;6.40;;;15.90;99.90;;;;;;5076769;28;20197;-78
2023/08/01 02:58:22;;;;;;;9.87;6.30;;;15.80;99.90;;;;;;5076513;28;20233;-78
2023/08/01 03:00:48;;;;;;;10.77;6.70;;;15.80;99.90;;;;;;5076726;28;20537;-78
2023/08/01 03:03:15;;;;;;;9.60;7.00;;;15.70;99.90;;;;;;5076824;28;20197;-81
2023/08/01 03:05:43;;;;;;;8.23;7.00;;;15.60;99.90;;;;;;5077087;28;20770;-81
2023/08/01 03:08:10;;;;;;;12.07;7.23;;;15.60;99.90;;;;;;5076620;28;20562;-80
2023/08/01 03:10:36;;;;;;;9.23;7.07;;;15.50;99.90;;;;;;5076979;28;20201;-82
2023/08/01 03:13:03;;;;;;;8.73;6.40;;;15.60;99.90;;;;;;5076860;28;20209;-80
2023/08/01 03:15:29;;;;;;;9.43;6.77;;;15.60;99.90;;;;;;5076527;28;20197;-80
2023/08/01 03:17:56;;;;;;;12.23;8.10;;;15.60;99.90;;;;;;5076808;28;20204;-80
2023/08/01 03:20:23;;;;;;;9.87;7.13;;;15.70;99.90;;;;;;5076338;28;20607;-81
2023/08/01 03:22:51;;;;;;;13.60;7.47;;;15.60;99.90;;;;;;5076717;28;20559;-80
2023/08/01 03:25:18;;;;;;;8.50;6.50;;;15.70;99.90;;;;;;5076576;28;20193;-81
2023/08/01 03:27:44;;;;;;;9.63;6.73;;;15.70;99.90;;;;;;5076458;28;20274;-80
2023/08/01 03:30:11;;;;;;;11.27;7.20;;;15.60;99.90;;;;;;5076129;28;20223;-81
2023/08/01 03:32:38;;;;;;;9.10;7.20;;;15.70;99.90;;;;;;5076800;28;20200;-81
2023/08/01 03:35:05;;;;;;;8.73;6.77;;;15.70;99.90;;;;;;5076911;28;20197;-81
2023/08/01 03:37:32;;;;;;;9.13;7.07;;;15.70;99.90;;;;;;5076507;28;20231;-81
2023/08/01 03:40:00;;;;;;;8.47;6.40;;;15.70;99.90;;;;;;5076535;28;20193;-81
2023/08/01 03:42:26;;;;;;;10.73;6.43;;;15.80;99.90;;;;;;5076283;28;20197;-81
2023/08/01 03:44:53;;;;;;;10.90;6.53;;;15.90;99.90;;;;;;5076762;28;20262;-81
2023/08/01 03:47:19;;;;;;;8.73;6.80;;;15.90;99.90;;;;;;5077030;28;20225;-81
2023/08/01 03:49:46;;;;;;;8.70;7.17;;;15.90;99.90;;;;;;5076177;28;20201;-81
2023/08/01 03:52:13;;;;;;;9.20;6.57;;;15.90;99.90;;;;;;5076189;28;20692;-81
2023/08/01 03:54:39;;;;;;;9.37;6.30;;;15.90;99.90;;;;;;5076121;28;20201;-81
2023/08/01 03:57:07;;;;;;;7.97;6.57;;;15.90;99.90;;;;;;5076259;28;20240;-81
2023/08/01 03:59:34;;;;;;;7.57;6.20;;;15.90;99.90;;;;;;5075373;28;20250;-81
2023/08/01 04:02:00;;;;;;;8.93;6.70;;;15.90;99.90;;;;;;5077110;28;20247;-81
2023/08/01 04:04:28;;;;;;;8.27;6.60;;;15.80;99.90;;;;;;5076363;28;20197;-81
2023/08/01 04:06:54;;;;;;;8.57;6.73;;;15.80;99.90;;;;;;5077183;28;20223;-81
2023/08/01 04:09:21;;;;;;;10.27;6.77;;;15.80;99.90;;;;;;5076930;28;20192;-81
2023/08/01 04:11:47;;;;;;;8.33;6.40;;;15.80;99.90;;;;;;5084924;28;20224;-81
2023/08/01 04:14:15;;;;;;;8.83;6.20;;;15.90;99.90;;;;;;5077408;28;20259;-81
2023/08/01 04:16:42;;;;;;;7.33;6.30;;;15.90;99.90;;;;;;5077600;28;20208;-79
2023/08/01 04:19:09;;;;;;;8.63;7.27;;;15.80;99.90;;;;;;5084666;28;20201;-80
2023/08/01 04:21:36;;;;;;;10.90;6.83;;;15.80;99.90;;;;;;5082966;28;20197;-80
2023/08/01 04:24:02;;;;;;;10.27;7.27;;;15.80;99.90;;;;;;5078509;28;20262;-79
2023/08/01 04:26:29;;;;;;;9.70;7.47;;;15.80;99.90;;;;;;5075491;28;20204;-80
2023/08/01 04:28:56;;;;;;;10.20;7.37;;;15.70;99.90;;;;;;5075468;28;20197;-78
2023/08/01 04:31:24;;;;;;;11.07;7.57;;;15.70;99.90;;;;;;5075415;28;20216;-77
2023/08/01 04:33:50;;;;;;;10.80;8.00;;;15.70;99.90;;;;;;5075092;28;20266;-77
2023/08/01 04:36:17;;;;;;;12.13;7.93;;;15.70;99.90;;;;;;5074918;28;20656;-77
2023/08/01 04:38:43;;;;;;;13.07;8.13;;;15.70;99.90;;;;;;5074656;28;20258;-77
2023/08/01 04:41:10;;;;;;;9.50;7.67;;;15.70;99.90;;;;;;5074945;28;20197;-78
2023/08/01 04:43:37;;;;;;;11.97;8.43;;;15.70;99.90;;;;;;5075106;28;20201;-78
2023/08/01 04:46:03;;;;;;;10.87;7.90;;;15.80;99.90;;;;;;5075094;28;20209;-79
2023/08/01 04:48:31;;;;;;;12.03;7.40;;;15.80;99.90;;;;;;5074820;28;20224;-79
2023/08/01 04:50:58;;;;;;;11.53;7.90;;;15.80;99.90;;;;;;5079753;28;20207;-77
2023/08/01 04:53:24;;;;;;;11.80;7.90;;;15.80;99.90;;;;;;5075133;28;20197;-77
2023/08/01 04:55:51;;;;;;;10.57;8.47;;;15.80;99.90;;;;;;5074973;28;20652;-78
2023/08/01 04:58:18;;;;;;;10.77;8.13;;;15.80;99.90;;;;;;5074310;28;20286;-78
2023/08/01 05:00:45;;;;;;;11.40;8.50;;;15.80;99.90;;;;;;5074151;28;20201;-78
2023/08/01 05:03:11;;;;;;;11.30;8.70;;;15.80;99.90;;;;;;5074583;28;20601;-78
2023/08/01 05:05:39;;;;;;;11.90;8.43;;;15.80;99.90;;;;;;5074347;28;20196;-78
2023/08/01 05:08:06;;;;;;;11.90;7.97;;;15.80;99.90;;;;;;5074199;28;20220;-78
2023/08/01 05:10:32;;;;;;;11.50;8.50;;;15.80;99.90;;;;;;5074261;28;20250;-77
2023/08/01 05:12:59;;;;;;;9.47;8.00;;;15.90;99.90;;;;;;5073677;28;20197;-77
2023/08/01 05:15:26;;;;;;;11.73;8.20;;;15.90;99.90;;;;;;5073770;28;20197;-76
2023/08/01 05:17:53;;;;;;;12.13;8.07;;;15.90;99.90;;;;;;5073645;28;20242;-77
2023/08/01 05:20:20;;;;;;;11.77;7.73;;;15.90;99.90;;;;;;5073611;28;20240;-78
2023/08/01 05:22:48;;;;;;;11.67;7.13;;;15.90;99.90;;;;;;5073642;28;20337;-84
2023/08/01 05:25:15;;;;;;;9.63;7.63;;;16.00;99.90;;;;;;5073504;28;20244;-77
2023/08/01 05:27:41;;;;;;;10.20;6.77;;;16.00;99.90;;;;;;5073487;28;20224;-77
2023/08/01 05:30:09;;;;;;;8.20;6.80;;;16.00;99.90;;;;;;5073529;28;20287;-77
2023/08/01 05:32:36;;;;;;;11.73;7.33;;;16.00;99.90;;;;;;5073394;28;20201;-76
2023/08/01 05:35:03;;;;;;;8.77;6.47;;;16.10;99.90;;;;;;5073540;28;20834;-78
2023/08/01 05:37:30;;;;;;;10.63;7.37;;;16.10;99.90;;;;;;5073973;28;20248;-77
2023/08/01 05:39:58;;;;;;;10.80;7.07;;;16.10;99.90;;;;;;5073562;28;20205;-76
2023/08/01 05:42:24;;;;;;;9.70;6.50;;;16.20;99.90;;;;;;5073349;28;20204;-76
2023/08/01 05:44:51;;;;;;;8.53;6.67;;;16.10;99.90;;;;;;5073085;28;20201;-77
2023/08/01 05:47:18;;;;;;;8.70;6.80;;;16.20;99.90;;;;;;5072829;28;20680;-77
2023/08/01 05:49:44;;;;;;;10.03;6.80;;;16.20;99.90;;;;;;5073097;28;20262;-76
2023/08/01 05:52:11;;;;;;;9.23;6.20;;;16.20;99.90;;;;;;5073199;28;20250;-77
2023/08/01 05:54:37;;;;;;;9.33;6.47;;;16.20;99.90;;;;;;5073692;28;20193;-77
2023/08/01 05:57:07;;;;;;;8.33;6.53;;;16.30;99.90;;;;;;5073370;28;20229;-77
2023/08/01 05:59:33;;;;;;;9.53;6.40;;;16.30;99.90;;;;;;5073179;28;20270;-77
2023/08/01 06:02:00;;;;;;;7.97;6.17;;;16.30;99.90;;;;;;5073091;28;20724;-77
2023/08/01 06:04:27;;;;;;;7.43;6.10;;;16.30;99.90;;;;;;5073469;28;20541;-77
2023/08/01 06:06:54;;;;;;;10.20;6.63;;;16.30;99.90;;;;;;5073385;28;20204;-76
2023/08/01 06:09:20;;;;;;;8.10;6.70;;;16.30;99.90;;;;;;5072939;28;20270;-76
2023/08/01 06:11:47;;;;;;;9.17;6.43;;;16.30;99.90;;;;;;5072772;28;20266;-76
2023/08/01 06:14:15;;;;;;;9.00;5.93;;;16.30;99.90;;;;;;5073191;28;20201;-76
2023/08/01 06:16:42;;;;;;;10.97;6.90;;;16.30;99.90;;;;;;5073051;28;20254;-76
2023/08/01 06:19:08;;;;;;;10.27;6.53;;;16.30;99.90;;;;;;5073101;28;20262;-75
2023/08/01 06:21:35;;;;;;;12.80;6.83;;;16.30;99.90;;;;;;5072860;28;20197;-75
2023/08/01 06:24:02;;;;;;;8.63;6.70;;;16.00;99.90;;;;;;5072350;28;20231;-77
2023/08/01 06:26:28;;;;;;;8.83;6.77;;;15.90;99.90;;;;;;5072615;28;20197;-77
2023/08/01 06:28:55;;;;;;;17.27;7.70;;;15.80;99.90;;;;;;5072544;28;20642;-73
2023/08/01 06:31:23;;;;;;;9.47;7.10;;;15.70;99.90;;;;;;5072631;28;20197;-76
2023/08/01 06:33:50;;;;;;;10.03;7.10;;;15.70;99.90;;;;;;5072984;28;20259;-78
2023/08/01 06:36:17;;;;;;;14.33;7.30;;;15.70;99.90;;;;;;5072677;28;20254;-77
2023/08/01 06:38:44;;;;;;;10.33;7.67;;;15.70;99.90;;;;;;5072807;28;20204;-77
2023/08/01 06:41:10;;;;;;;11.37;7.73;;;15.70;99.90;;;;;;5072792;28;20250;-76
2023/08/01 06:43:38;;;;;;;11.23;7.57;;;15.80;99.90;;;;;;5072610;28;20193;-77
2023/08/01 06:46:05;;;;;;;10.80;7.50;;;15.90;99.90;;;;;;5072807;28;20653;-77
2023/08/01 06:48:34;;;;;;;12.00;7.00;;;15.90;99.90;;;;;;5072982;28;20232;-77
2023/08/01 06:51:01;;;;;;;9.47;7.30;;;16.00;99.90;;;;;;5072529;28;20296;-74
2023/08/01 06:53:27;;;;;;;9.70;7.07;;;16.00;99.90;;;;;;5072526;28;20208;-76
2023/08/01 06:55:54;;;;;;;11.60;6.60;;;16.10;99.90;;;;;;5072276;28;20645;-76
2023/08/01 06:58:20;;;;;;;10.00;6.73;;;16.10;99.90;;;;;;5072045;28;20228;-75
2023/08/01 07:00:47;;;;;;;10.57;6.27;;;16.20;99.90;;;;;;5072207;28;20702;-76
2023/08/01 07:03:14;;;;;;;10.13;7.17;;;16.20;99.90;;;;;;5072243;28;20279;-75
2023/08/01 07:05:42;;;;;;;7.97;6.57;;;16.30;99.90;;;;;;5072399;28;20197;-76
2023/08/01 07:08:09;;;;;;;9.97;6.47;;;16.40;99.90;;;;;;5072245;28;20225;-76
2023/08/01 07:10:36;;;;;;;9.03;6.87;;;16.30;99.90;;;;;;5072243;28;20201;-76
2023/08/01 07:13:04;;;;;;;14.10;7.23;;;16.30;99.90;;;;;;5072187;28;20231;-76
2023/08/01 07:15:31;;;;;;;9.30;6.50;;;16.30;99.90;;;;;;5072867;28;20283;-77
2023/08/01 07:17:57;;;;;;;12.87;8.00;;;15.90;99.90;;;;;;5073014;28;20193;-79
2023/08/01 07:20:24;;;;;;;10.60;7.60;;;15.90;99.90;;;;;;5072965;28;20211;-77
2023/08/01 07:22:52;;;;;;;11.37;7.37;;;15.90;99.90;;;;;;5072787;28;20201;-77
2023/08/01 07:25:20;;;;;;;15.20;7.83;;;15.90;99.90;;;;;;5072732;28;20201;-78
2023/08/01 07:27:46;;;;;;;12.70;8.30;;;15.90;99.90;;;;;;5072187;28;20710;-78
2023/08/01 07:30:13;;;;;;;9.00;7.70;;;15.90;99.90;;;;;;5072789;28;20254;-78
2023/08/01 07:32:41;;;;;;;12.77;7.30;;;16.00;99.90;;;;;;5072673;28;20255;-79
2023/08/01 07:35:09;;;;;;;11.50;7.60;;;15.90;99.90;;;;;;5074339;28;20193;-78
2023/08/01 07:37:37;;;;;;;10.33;7.03;;;15.90;99.90;;;;;;5076291;28;20197;-78
2023/08/01 07:40:06;;;;;;;11.53;7.50;;;15.90;99.90;;;;;;5075712;28;20200;-77
2023/08/01 07:42:33;;;;;;;10.93;7.07;;;15.90;99.90;;;;;;5076158;28;20216;-76
2023/08/01 07:44:59;;;;;;;9.90;6.67;;;15.80;99.90;;;;;;5075873;28;20205;-74
2023/08/01 07:47:26;;;;;;;8.77;6.20;;;15.80;99.90;;;;;;5075253;28;20201;-73
2023/08/01 07:49:54;;;;;;;12.87;6.83;;;15.70;99.90;;;;;;5075300;28;20266;-73
2023/08/01 07:52:20;;;;;;;10.87;6.70;;;15.70;99.90;;;;;;5075094;28;20660;-73
2023/08/01 07:54:47;;;;;;;14.70;8.70;;;15.70;99.90;;;;;;5075106;28;20247;-74
2023/08/01 07:57:15;;;;;;;12.10;7.67;;;15.70;99.90;;;;;;5075149;28;20240;-73
2023/08/01 07:59:42;;;;;;;10.47;7.00;;;15.60;99.90;;;;;;5075322;28;20239;-74
2023/08/01 08:02:08;;;;;;;9.27;7.00;;;15.60;99.90;;;;;;5075192;28;20204;-73
2023/08/01 08:04:35;;;;;;;11.50;6.80;;;15.40;99.90;;;;;;5075028;28;20193;-73
2023/08/01 08:07:01;;;;;;;8.80;6.57;;;15.50;99.90;;;;;;5074991;28;20201;-73
2023/08/01 08:09:28;;;;;;;9.33;6.80;;;15.40;99.90;;;;;;5074707;28;20700;-73
2023/08/01 08:11:57;;;;;;;9.77;6.90;;;15.30;99.90;;;;;;5075097;28;20243;-73
2023/08/01 08:14:25;;;;;;;9.53;6.07;;;15.20;99.90;;;;;;5074985;28;20201;-74
2023/08/01 08:16:51;;;;;;;11.47;7.03;;;15.20;99.90;;;;;;5074641;28;20205;-73
2023/08/01 08:19:18;;;;;;;8.83;7.10;;;15.20;99.90;;;;;;5074708;28;20192;-74
2023/08/01 08:21:45;;;;;;;9.30;6.37;;;15.10;99.90;;;;;;5076603;28;20209;-73
2023/08/01 08:24:11;;;;;;;11.27;7.43;;;15.10;99.90;;;;;;5072856;28;20652;-74
2023/08/01 08:26:39;;;;;;;11.33;7.43;;;15.10;99.90;;;;;;5074567;28;20197;-74
2023/08/01 08:29:06;;;;;;;11.27;7.60;;;15.00;99.90;;;;;;5074341;28;20237;-73
2023/08/01 08:31:34;;;;;;;12.03;8.43;;;14.90;99.90;;;;;;5074467;28;20679;-73
2023/08/01 08:34:00;;;;;;;12.20;8.33;;;15.00;99.90;;;;;;5074418;28;20204;-74
2023/08/01 08:36:27;;;;;;;12.07;8.33;;;15.00;99.90;;;;;;5074284;28;20194;-74
2023/08/01 08:38:54;;;;;;;10.67;8.43;;;14.90;99.90;;;;;;5074495;28;20274;-74
2023/08/01 08:41:22;;;;;;;12.23;8.83;;;15.00;99.90;;;;;;5074388;28;20247;-74
2023/08/01 08:43:49;;;;;;;12.13;8.60;;;15.10;99.90;;;;;;5074276;28;20208;-74
2023/08/01 08:46:17;;;;;;;12.20;8.80;;;15.10;99.90;;;;;;5073555;28;20250;-74
2023/08/01 08:48:46;;;;;;;11.00;8.60;;;15.20;99.90;;;;;;5074046;28;20290;-73
2023/08/01 08:51:13;;;;;;;14.83;8.90;;;15.10;99.90;;;;;;5074188;28;20200;-74
2023/08/01 08:53:41;;;;;;;12.03;7.87;;;15.20;99.90;;;;;;5074300;28;20197;-74
2023/08/01 08:56:09;;;;;;;11.40;8.50;;;15.20;99.90;;;;;;5073998;28;20223;-75
2023/08/01 08:58:38;;;;;;;12.50;8.70;;;15.20;99.90;;;;;;5073515;28;20233;-76
2023/08/01 09:01:07;;;;;;;10.60;8.53;;;15.20;99.90;;;;;;5073982;28;20328;-77
2023/08/01 09:03:33;;;;;;;10.07;8.27;;;15.30;99.90;;;;;;5074084;28;20203;-77
2023/08/01 09:06:06;;;;;;;12.33;8.50;;;15.30;99.90;;;;;;5074391;28;20200;-76
2023/08/01 09:08:37;;;;;;;10.63;8.13;;;15.40;99.90;;;;;;5074170;28;20266;-77
2023/08/01 09:11:04;;;;;;;9.33;7.37;;;15.50;99.90;;;;;;5074210;28;20289;-79
2023/08/01 09:13:31;;;;;;;9.00;7.27;;;15.50;99.90;;;;;;5073884;28;20201;-81
2023/08/01 09:15:58;;;;;;;11.00;8.03;;;15.70;99.90;;;;;;5075505;28;20197;-84
2023/08/01 09:18:24;;;;;;;9.73;6.83;;;15.90;99.90;;;;;;5076819;28;20208;-81
2023/08/01 09:20:51;;;;;;;10.43;6.90;;;15.60;99.90;;;;;;5076716;28;20201;-86
2023/08/01 09:23:19;;;;;;;10.07;7.10;;;15.50;99.90;;;;;;5076917;28;20649;-86
2023/08/01 09:25:46;;;;;;;8.63;7.00;;;15.60;99.90;;;;;;5074186;28;20193;-80
2023/08/01 09:28:17;;;;;;;8.23;7.27;;;15.60;99.90;;;;;;5073873;28;20193;-81
2023/08/01 09:30:48;;;;;;;8.50;6.50;;;15.60;99.90;;;;;;5073499;28;20216;-78
2023/08/01 09:33:15;;;;;;;9.07;7.27;;;15.50;99.90;;;;;;5073304;28;20680;-79
2023/08/01 09:35:44;;;;;;;9.57;7.33;;;15.50;99.90;;;;;;5073376;28;20203;-77
2023/08/01 09:38:11;;;;;;;11.67;8.17;;;15.50;99.90;;;;;;5073157;28;20641;-77
2023/08/01 09:40:39;;;;;;;9.93;6.53;;;15.70;99.90;;;;;;5072869;28;20660;-77
2023/08/01 09:43:06;;;;;;;8.27;6.07;;;15.80;99.90;;;;;;5072705;28;20569;-77
2023/08/01 09:45:34;;;;;;;7.50;6.17;;;15.70;99.90;;;;;;5072953;28;20627;-78
2023/08/01 09:48:01;;;;;;;7.77;6.33;;;15.80;99.90;;;;;;5072756;28;20556;-79
2023/08/01 09:50:28;;;;;;;8.17;6.30;;;15.90;99.90;;;;;;5072914;28;20200;-78
2023/08/01 09:52:54;;;;;;;9.27;5.47;;;16.20;99.90;;;;;;5073168;28;20197;-80
2023/08/01 09:55:26;;;;;;;7.47;5.40;;;16.40;99.90;;;;;;5073249;28;20541;-82
2023/08/01 09:57:57;;;;;;;5.38;4.65;;;16.50;99.90;;;;;;5072612;28;20233;-80
2023/08/01 10:00:23;;;;;;;6.13;4.80;;;16.40;99.90;;;;;;5073750;28;20201;-80
2023/08/01 10:02:53;;;;;;;5.70;4.60;;;16.30;99.90;;;;;;5073288;28;20300;-80
2023/08/01 10:05:20;;;;;;;4.90;3.77;;;16.30;99.90;;;;;;5073503;28;20292;-80
2023/08/01 10:07:49;;;;;;;5.13;3.90;;;16.30;99.90;;;;;;5073417;28;20246;-80
2023/08/01 10:10:16;;;;;;;5.10;4.60;;;16.30;99.90;;;;;;5072922;28;20240;-79
2023/08/01 10:12:47;;;;;;;4.90;4.40;;;16.20;99.90;;;;;;5073520;28;20204;-80
2023/08/01 10:15:16;;;;;;;5.67;4.27;;;16.20;99.90;;;;;;5070686;28;20193;-79
2023/08/01 10:17:44;;;;;;;5.63;4.10;;;16.30;99.90;;;;;;5071427;28;20212;-80
2023/08/01 10:20:12;;;;;;;4.67;4.10;;;16.30;99.90;;;;;;5072286;28;20278;-73
2023/08/01 10:22:40;;;;;;;5.37;3.70;;;16.40;99.90;;;;;;5072360;28;20200;-79
2023/08/01 10:25:09;;;;;;;3.73;3.13;;;16.40;99.90;;;;;;5073026;28;20259;-79
2023/08/01 10:27:36;;;;;;;5.03;3.00;;;16.60;99.90;;;;;;5073206;28;20197;-80
2023/08/01 10:30:05;;;;;;;4.57;3.30;;;16.70;99.90;;;;;;5073493;28;20260;-80
2023/08/01 10:32:35;;;;;;;4.00;3.60;;;16.80;99.90;;;;;;5073645;28;20197;-80
2023/08/01 10:35:02;;;;;;;4.77;3.17;;;16.90;99.90;;;;;;5073385;28;20843;-82
2023/08/01 10:37:40;;;;;;;5.40;2.97;;;17.00;99.90;;;;;;5073978;28;20201;-82
2023/08/01 10:40:08;;;;;;;2.97;2.65;;;17.10;99.90;;;;;;5073075;28;20196;-78
2023/08/01 10:42:39;;;;;;;3.25;2.72;;;17.10;99.90;;;;;;5072854;28;20258;-78
2023/08/01 10:45:06;;;;;;;3.28;2.70;;;17.20;99.90;;;;;;5072759;28;20267;-77
2023/08/01 10:47:34;;;;;;;4.18;2.63;;;17.30;99.90;;;;;;5072127;28;20726;-77
2023/08/01 10:50:02;;;;;;;3.30;2.80;;;17.50;99.90;;;;;;5072373;28;20225;-77
2023/08/01 10:52:29;;;;;;;3.28;2.95;;;17.80;99.90;;;;;;5072763;28;20193;-76
2023/08/01 10:55:00;;;;;;;3.25;2.55;;;17.90;99.90;;;;;;5072301;28;20212;-77
2023/08/01 10:57:29;;;;;;;3.00;2.30;;;18.40;99.90;;;;;;5072130;28;20278;-79
2023/08/01 10:59:57;;;;;;;2.97;2.30;;;18.50;99.90;;;;;;5073090;28;20201;-78
2023/08/01 11:02:25;;;;;;;2.40;2.20;;;18.60;99.90;;;;;;5072938;28;20251;-78
2023/08/01 11:05:03;;;;;;;2.35;2.13;;;18.60;99.90;;;;;;5072819;28;20201;-78
2023/08/01 11:07:30;;;;;;;2.40;2.20;;;18.30;99.90;;;;;;5072498;28;20201;-78
2023/08/01 11:10:08;;;;;;;2.60;2.08;;;18.30;99.90;;;;;;5075871;28;20757;-81
2023/08/01 11:12:36;;;;;;;2.30;2.10;;;18.10;99.90;;;;;;5078237;28;20205;-81
2023/08/01 11:15:05;;;;;;;2.30;2.10;;;18.20;99.90;;;;;;5078309;28;20201;-88
2023/08/01 11:17:32;;;;;;;2.80;2.30;;;18.40;99.90;;;;;;5077866;28;20205;-80
2023/08/01 11:20:05;;;;;;;2.97;1.83;;;18.90;99.90;;;;;;5076891;28;20209;-83
2023/08/01 11:22:31;;;;;;;2.03;1.83;;;19.10;99.90;;;;;;5075749;28;20204;-77
2023/08/01 11:24:59;;;;;;;2.90;2.20;;;18.70;99.90;;;;;;5076143;28;20200;-76
2023/08/01 11:27:25;;;;;;;1.83;1.70;;;18.80;99.90;;;;;;5078502;28;20730;-79
2023/08/01 11:29:52;;;;;;;2.63;2.17;;;18.80;99.90;;;;;;5078104;28;20510;-77
2023/08/01 11:32:20;;;;;;;2.30;1.50;;;19.00;99.90;;;;;;5078054;28;20233;-77
2023/08/01 11:34:47;;;;;;;1.52;1.42;;;18.80;99.90;;;;;;5075931;28;20560;-78
2023/08/01 11:37:18;;;;;;;1.73;1.30;;;18.90;99.90;;;;;;5076403;28;20274;-77
2023/08/01 11:39:46;;;;;;;1.75;1.60;;;19.00;99.90;;;;;;5076502;28;20258;-80
2023/08/01 11:42:16;;;;;;;2.15;1.35;;;19.20;99.90;;;;;;5076370;28;20254;-78
2023/08/01 11:44:43;;;;;;;2.63;1.50;;;19.50;99.90;;;;;;5076083;28;20555;-77
2023/08/01 11:47:13;;;;;;;1.55;1.45;;;19.70;99.90;;;;;;5060679;28;20197;-76
2023/08/01 11:49:40;;;;;;;1.63;1.52;;;19.50;99.90;;;;;;5073724;28;20221;-77
2023/08/01 11:52:08;;;;;;;1.67;1.58;;;19.90;99.90;;;;;;5075289;28;20597;-77
2023/08/01 11:54:46;;;;;;;1.55;1.27;;;20.70;99.90;;;;;;5076019;28;20691;-82
2023/08/01 11:57:12;;;;;;;2.40;1.30;;;20.90;99.90;;;;;;5076812;28;20231;-80
2023/08/01 11:59:47;;;;;;;2.35;1.67;;;20.40;99.90;;;;;;5081920;28;20623;-81
2023/08/01 12:02:21;;;;;;;3.30;1.50;;;20.50;99.90;;;;;;5086113;28;20219;-80
2023/08/01 12:04:48;;;;;;;1.70;1.60;;;21.50;99.90;;;;;;5085512;28;20259;-81
2023/08/01 12:07:16;;;;;;;2.00;1.50;;;21.60;99.90;;;;;;5082160;28;20201;-76
2023/08/01 12:09:42;;;;;;;1.55;1.40;;;21.30;99.90;;;;;;5076481;28;20320;-80
2023/08/01 12:12:11;;;;;;;1.60;1.30;;;21.90;99.90;;;;;;5075780;28;20247;-80
2023/08/01 12:14:40;;;;;;;4.28;1.40;;;21.10;99.90;;;;;;5075675;28;20196;-87
2023/08/01 12:17:07;;;;;;;2.90;1.40;;;20.20;99.90;;;;;;5075283;28;20641;-79
2023/08/01 12:19:34;;;;;;;3.97;1.50;;;20.10;99.90;;;;;;5074929;28;20266;-80
2023/08/01 12:22:01;;;;;;;3.05;1.60;;;19.90;99.90;;;;;;5074836;28;20261;-78
2023/08/01 12:24:27;;;;;;;1.75;1.38;;;19.50;99.90;;;;;;5075359;28;20193;-79
2023/08/01 12:26:54;;;;;;;1.40;1.27;;;19.40;99.90;;;;;;5073643;28;20486;-78
2023/08/01 12:29:22;;;;;;;3.35;1.33;;;19.30;99.90;;;;;;5075082;28;20374;-78
2023/08/01 12:31:49;;;;;;;2.67;1.55;;;18.90;99.90;;;;;;5075058;28;20708;-78
2023/08/01 12:34:16;;;;;;;2.55;1.27;;;18.70;99.90;;;;;;5074935;28;20575;-79
2023/08/01 12:36:42;;;;;;;1.92;1.50;;;18.40;99.90;;;;;;5075046;28;20201;-78
2023/08/01 12:39:10;;;;;;;4.30;1.80;;;18.20;99.90;;;;;;5074970;28;20664;-80
2023/08/01 12:41:37;;;;;;;3.20;1.75;;;17.70;99.90;;;;;;5074671;28;20719;-78
2023/08/01 12:44:04;;;;;;;4.43;2.00;;;15.30;99.90;;;;;;5074212;28;20259;-75